sensor_id;sensor_type;location;lat;lon;timestamp;pressure;altitude;pressure_sealevel;temperature;humidity
17373;BME280;8803;48.116;11.590;2024-01-30T00:03:26;96956.12;;;6.33;68.38
17373;BME280;8803;48.116;11.590;2024-01-30T00:07:45;96952.67;;;6.31;68.35
17373;BME280;8803;48.116;11.590;2024-01-30T00:12:07;96949.75;;;6.28;68.53
17373;BME280;8803;48.116;11.590;2024-01-30T00:14:11;96961.48;;;6.23;68.42
17373;BME280;8803;48.116;11.590;2024-01-30T00:18:36;96954.81;;;6.24;68.62
17373;BME280;8803;48.116;11.590;2024-01-30T00:22:55;96952.86;;;6.19;68.69
17373;BME280;8803;48.116;11.590;2024-01-30T00:27:13;96957.83;;;6.17;68.45
17373;BME280;8803;48.116;11.590;2024-01-30T00:31:31;96964.07;;;6.16;68.61
17373;BME280;8803;48.116;11.590;2024-01-30T00:35:49;96959.87;;;6.12;68.76
17373;BME280;8803;48.116;11.590;2024-01-30T00:40:10;96959.56;;;6.09;68.77
17373;BME280;8803;48.116;11.590;2024-01-30T00:44:30;96957.83;;;6.08;68.80
17373;BME280;8803;48.116;11.590;2024-01-30T00:48:49;96958.38;;;6.06;68.80
17373;BME280;8803;48.116;11.590;2024-01-30T00:53:07;96959.47;;;6.02;68.71
17373;BME280;8803;48.116;11.590;2024-01-30T00:57:24;96959.55;;;6.01;68.63
17373;BME280;8803;48.116;11.590;2024-01-30T01:01:43;96955.13;;;6.01;68.80
17373;BME280;8803;48.116;11.590;2024-01-30T01:06:01;96960.02;;;6.00;68.89
17373;BME280;8803;48.116;11.590;2024-01-30T01:08:08;96964.67;;;5.95;68.60
17373;BME280;8803;48.116;11.590;2024-01-30T01:12:27;96964.06;;;5.99;69.04
17373;BME280;8803;48.116;11.590;2024-01-30T01:16:45;96961.02;;;5.98;68.93
17373;BME280;8803;48.116;11.590;2024-01-30T01:21:03;96957.55;;;5.97;68.87
17373;BME280;8803;48.116;11.590;2024-01-30T01:25:21;96963.20;;;5.98;69.35
17373;BME280;8803;48.116;11.590;2024-01-30T01:29:39;96961.02;;;5.98;69.16
17373;BME280;8803;48.116;11.590;2024-01-30T01:33:57;96957.05;;;5.98;68.80
17373;BME280;8803;48.116;11.590;2024-01-30T01:38:15;96962.42;;;5.96;68.79
17373;BME280;8803;48.116;11.590;2024-01-30T01:40:19;96961.42;;;5.90;68.72
17373;BME280;8803;48.116;11.590;2024-01-30T01:42:24;96960.55;;;5.90;68.60
17373;BME280;8803;48.116;11.590;2024-01-30T01:46:42;96951.08;;;5.94;69.14
17373;BME280;8803;48.116;11.590;2024-01-30T01:51:00;96953.86;;;5.91;68.91
17373;BME280;8803;48.116;11.590;2024-01-30T01:55:18;96958.23;;;5.92;69.28
17373;BME280;8803;48.116;11.590;2024-01-30T01:59:38;96952.17;;;5.90;68.99
17373;BME280;8803;48.116;11.590;2024-01-30T02:03:57;96955.27;;;5.90;69.06
17373;BME280;8803;48.116;11.590;2024-01-30T02:08:16;96952.63;;;5.90;69.39
17373;BME280;8803;48.116;11.590;2024-01-30T02:10:21;96960.73;;;5.87;69.15
17373;BME280;8803;48.116;11.590;2024-01-30T02:14:46;96948.66;;;5.90;69.01
17373;BME280;8803;48.116;11.590;2024-01-30T02:19:04;96956.22;;;5.89;69.07
17373;BME280;8803;48.116;11.590;2024-01-30T02:23:25;96953.26;;;5.86;69.08
17373;BME280;8803;48.116;11.590;2024-01-30T02:27:47;96965.70;;;5.84;68.83
17373;BME280;8803;48.116;11.590;2024-01-30T02:32:07;96954.00;;;5.80;69.01
17373;BME280;8803;48.116;11.590;2024-01-30T02:34:12;96958.64;;;5.75;68.95
17373;BME280;8803;48.116;11.590;2024-01-30T02:36:16;96954.30;;;5.74;68.79
17373;BME280;8803;48.116;11.590;2024-01-30T02:40:35;96953.22;;;5.78;68.72
17373;BME280;8803;48.116;11.590;2024-01-30T02:44:52;96954.30;;;5.74;68.70
17373;BME280;8803;48.116;11.590;2024-01-30T02:49:11;96954.84;;;5.72;68.75
17373;BME280;8803;48.116;11.590;2024-01-30T02:53:31;96951.89;;;5.69;68.64
17373;BME280;8803;48.116;11.590;2024-01-30T02:57:49;96948.55;;;5.66;68.55
17373;BME280;8803;48.116;11.590;2024-01-30T03:02:07;96940.67;;;5.64;68.55
17373;BME280;8803;48.116;11.590;2024-01-30T03:04:12;96942.77;;;5.57;68.68
17373;BME280;8803;48.116;11.590;2024-01-30T03:08:30;96936.94;;;5.59;68.48
17373;BME280;8803;48.116;11.590;2024-01-30T03:12:47;96935.70;;;5.58;68.47
17373;BME280;8803;48.116;11.590;2024-01-30T03:17:05;96941.94;;;5.57;68.62
17373;BME280;8803;48.116;11.590;2024-01-30T03:21:23;96932.45;;;5.53;68.82
17373;BME280;8803;48.116;11.590;2024-01-30T03:25:41;96935.14;;;5.51;68.63
17373;BME280;8803;48.116;11.590;2024-01-30T03:29:59;96930.81;;;5.50;68.69
17373;BME280;8803;48.116;11.590;2024-01-30T03:32:07;96933.67;;;5.46;68.58
17373;BME280;8803;48.116;11.590;2024-01-30T03:36:25;96927.30;;;5.50;68.68
17373;BME280;8803;48.116;11.590;2024-01-30T03:40:44;96929.95;;;5.50;68.99
17373;BME280;8803;48.116;11.590;2024-01-30T03:45:02;96924.26;;;5.49;68.78
17373;BME280;8803;48.116;11.590;2024-01-30T03:49:22;96918.92;;;5.50;69.24
17373;BME280;8803;48.116;11.590;2024-01-30T03:53:40;96921.39;;;5.53;69.39
17373;BME280;8803;48.116;11.590;2024-01-30T03:57:59;96917.38;;;5.55;68.80
17373;BME280;8803;48.116;11.590;2024-01-30T04:02:20;96922.17;;;5.55;68.56
17373;BME280;8803;48.116;11.590;2024-01-30T04:04:25;96922.48;;;5.49;68.41
17373;BME280;8803;48.116;11.590;2024-01-30T04:08:42;96923.20;;;5.53;68.69
17373;BME280;8803;48.116;11.590;2024-01-30T04:13:01;96923.75;;;5.51;68.66
17373;BME280;8803;48.116;11.590;2024-01-30T04:15:09;96925.75;;;5.46;68.48
17373;BME280;8803;48.116;11.590;2024-01-30T04:19:26;96924.75;;;5.48;68.43
17373;BME280;8803;48.116;11.590;2024-01-30T04:23:44;96923.97;;;5.46;68.50
17373;BME280;8803;48.116;11.590;2024-01-30T04:28:02;96921.33;;;5.46;68.55
17373;BME280;8803;48.116;11.590;2024-01-30T04:30:10;96926.83;;;5.42;68.40
17373;BME280;8803;48.116;11.590;2024-01-30T04:32:15;96928.61;;;5.41;68.55
17373;BME280;8803;48.116;11.590;2024-01-30T04:34:20;96927.29;;;5.41;68.41
17373;BME280;8803;48.116;11.590;2024-01-30T04:38:37;96925.29;;;5.46;68.37
17373;BME280;8803;48.116;11.590;2024-01-30T04:42:57;96922.70;;;5.45;68.49
17373;BME280;8803;48.116;11.590;2024-01-30T04:47:14;96921.37;;;5.45;68.50
17373;BME280;8803;48.116;11.590;2024-01-30T04:53:46;96920.55;;;5.44;68.55
17373;BME280;8803;48.116;11.590;2024-01-30T04:58:04;96920.06;;;5.45;68.47
17373;BME280;8803;48.116;11.590;2024-01-30T05:00:14;96925.11;;;5.41;68.34
17373;BME280;8803;48.116;11.590;2024-01-30T05:04:32;96919.60;;;5.45;68.37
17373;BME280;8803;48.116;11.590;2024-01-30T05:08:50;96922.33;;;5.44;68.35
17373;BME280;8803;48.116;11.590;2024-01-30T05:13:07;96921.87;;;5.44;68.54
17373;BME280;8803;48.116;11.590;2024-01-30T05:15:12;96934.89;;;5.39;68.29
17373;BME280;8803;48.116;11.590;2024-01-30T05:19:29;96934.59;;;5.45;68.79
17373;BME280;8803;48.116;11.590;2024-01-30T05:23:47;96929.39;;;5.43;68.69
17373;BME280;8803;48.116;11.590;2024-01-30T05:28:07;96933.44;;;5.42;68.67
17373;BME280;8803;48.116;11.590;2024-01-30T05:32:28;96928.61;;;5.41;68.32
17373;BME280;8803;48.116;11.590;2024-01-30T05:36:47;96935.34;;;5.38;68.39
17373;BME280;8803;48.116;11.590;2024-01-30T05:38:52;96939.94;;;5.35;68.66
17373;BME280;8803;48.116;11.590;2024-01-30T05:43:09;96931.02;;;5.37;68.46
17373;BME280;8803;48.116;11.590;2024-01-30T05:47:28;96941.58;;;5.37;68.51
17373;BME280;8803;48.116;11.590;2024-01-30T05:51:45;96945.13;;;5.36;68.44
17373;BME280;8803;48.116;11.590;2024-01-30T05:56:07;96945.13;;;5.36;68.65
17373;BME280;8803;48.116;11.590;2024-01-30T06:02:40;96951.27;;;5.37;68.59
17373;BME280;8803;48.116;11.590;2024-01-30T06:06:57;96955.69;;;5.36;68.92
17373;BME280;8803;48.116;11.590;2024-01-30T06:11:17;96950.41;;;5.36;68.87
17373;BME280;8803;48.116;11.590;2024-01-30T06:15:35;96954.86;;;5.36;68.92
17373;BME280;8803;48.116;11.590;2024-01-30T06:19:51;96953.22;;;5.33;68.55
17373;BME280;8803;48.116;11.590;2024-01-30T06:24:09;96954.63;;;5.32;68.80
17373;BME280;8803;48.116;11.590;2024-01-30T06:26:14;96960.58;;;5.27;68.81
17373;BME280;8803;48.116;11.590;2024-01-30T06:28:18;96958.39;;;5.26;68.73
17373;BME280;8803;48.116;11.590;2024-01-30T06:30:23;96965.45;;;5.26;68.64
17373;BME280;8803;48.116;11.590;2024-01-30T06:34:42;96961.77;;;5.30;69.07
17373;BME280;8803;48.116;11.590;2024-01-30T06:39:05;96963.91;;;5.30;68.77
17373;BME280;8803;48.116;11.590;2024-01-30T06:43:24;96966.55;;;5.30;68.93
17373;BME280;8803;48.116;11.590;2024-01-30T06:47:42;96971.38;;;5.31;68.97
17373;BME280;8803;48.116;11.590;2024-01-30T06:51:59;96970.47;;;5.32;68.66
17373;BME280;8803;48.116;11.590;2024-01-30T06:54:05;96978.59;;;5.27;68.52
17373;BME280;8803;48.116;11.590;2024-01-30T06:56:10;96977.73;;;5.27;68.64
17373;BME280;8803;48.116;11.590;2024-01-30T06:58:14;96979.46;;;5.28;68.69
17373;BME280;8803;48.116;11.590;2024-01-30T07:02:34;96977.84;;;5.34;68.71
17373;BME280;8803;48.116;11.590;2024-01-30T07:04:39;96980.30;;;5.28;68.56
17373;BME280;8803;48.116;11.590;2024-01-30T07:08:58;96981.27;;;5.36;68.67
17373;BME280;8803;48.116;11.590;2024-01-30T07:11:03;96982.34;;;5.32;68.52
17373;BME280;8803;48.116;11.590;2024-01-30T07:15:24;96979.41;;;5.38;68.57
17373;BME280;8803;48.116;11.590;2024-01-30T07:19:41;96974.45;;;5.40;68.66
17373;BME280;8803;48.116;11.590;2024-01-30T07:23:59;96980.52;;;5.42;68.52
17373;BME280;8803;48.116;11.590;2024-01-30T07:28:18;96987.81;;;5.46;68.41
17373;BME280;8803;48.116;11.590;2024-01-30T07:32:37;96993.88;;;5.48;68.15
17373;BME280;8803;48.116;11.590;2024-01-30T07:36:55;96992.42;;;5.51;68.14
17373;BME280;8803;48.116;11.590;2024-01-30T07:38:59;96989.91;;;5.48;68.11
17373;BME280;8803;48.116;11.590;2024-01-30T07:43:19;96986.97;;;5.54;68.17
17373;BME280;8803;48.116;11.590;2024-01-30T07:47:38;96994.36;;;5.56;68.13
17373;BME280;8803;48.116;11.590;2024-01-30T07:51:55;96987.12;;;5.59;68.23
17373;BME280;8803;48.116;11.590;2024-01-30T07:56:13;96994.00;;;5.64;68.17
17373;BME280;8803;48.116;11.590;2024-01-30T08:00:32;96993.84;;;5.67;68.13
17373;BME280;8803;48.116;11.590;2024-01-30T08:04:50;96992.30;;;5.71;68.10
17373;BME280;8803;48.116;11.590;2024-01-30T08:09:07;96997.68;;;5.78;67.91
17373;BME280;8803;48.116;11.590;2024-01-30T08:13:28;96994.77;;;5.84;67.87
17373;BME280;8803;48.116;11.590;2024-01-30T08:15:33;97001.47;;;5.81;67.61
17373;BME280;8803;48.116;11.590;2024-01-30T08:19:51;97004.86;;;5.93;67.70
17373;BME280;8803;48.116;11.590;2024-01-30T08:24:10;97008.46;;;6.01;67.48
17373;BME280;8803;48.116;11.590;2024-01-30T08:28:27;97002.00;;;6.06;67.27
17373;BME280;8803;48.116;11.590;2024-01-30T08:32:46;97003.41;;;6.13;67.02
17373;BME280;8803;48.116;11.590;2024-01-30T08:37:05;96997.35;;;6.20;66.62
17373;BME280;8803;48.116;11.590;2024-01-30T08:41:23;96991.66;;;6.27;66.28
17373;BME280;8803;48.116;11.590;2024-01-30T08:45:41;96991.74;;;6.34;65.78
17373;BME280;8803;48.116;11.590;2024-01-30T08:49:59;96990.87;;;6.43;65.31
17373;BME280;8803;48.116;11.590;2024-01-30T08:54:19;96990.41;;;6.52;64.96
17373;BME280;8803;48.116;11.590;2024-01-30T08:58:37;96994.27;;;6.62;64.71
17373;BME280;8803;48.116;11.590;2024-01-30T09:02:56;96995.89;;;6.73;64.37
17373;BME280;8803;48.116;11.590;2024-01-30T09:07:13;97003.81;;;6.81;63.81
17373;BME280;8803;48.116;11.590;2024-01-30T09:11:31;96998.78;;;6.92;63.43
17373;BME280;8803;48.116;11.590;2024-01-30T09:15:49;97005.37;;;7.01;62.98
17373;BME280;8803;48.116;11.590;2024-01-30T09:20:15;97005.66;;;7.12;62.69
17373;BME280;8803;48.116;11.590;2024-01-30T09:24:34;97010.83;;;7.22;62.21
17373;BME280;8803;48.116;11.590;2024-01-30T09:28:51;97014.69;;;7.32;61.91
17373;BME280;8803;48.116;11.590;2024-01-30T09:33:09;97014.03;;;7.44;61.41
17373;BME280;8803;48.116;11.590;2024-01-30T09:37:48;97016.30;;;7.59;60.96
17373;BME280;8803;48.116;11.590;2024-01-30T09:42:11;97015.75;;;7.68;60.50
17373;BME280;8803;48.116;11.590;2024-01-30T09:46:33;97018.30;;;7.78;60.11
17373;BME280;8803;48.116;11.590;2024-01-30T09:50:55;97022.49;;;7.89;59.81
17373;BME280;8803;48.116;11.590;2024-01-30T09:55:14;97024.62;;;7.98;59.38
17373;BME280;8803;48.116;11.590;2024-01-30T09:59:32;97020.89;;;8.09;59.07
17373;BME280;8803;48.116;11.590;2024-01-30T10:03:51;97015.03;;;8.18;58.58
17373;BME280;8803;48.116;11.590;2024-01-30T10:08:11;97016.92;;;8.32;58.20
17373;BME280;8803;48.116;11.590;2024-01-30T10:12:31;97014.80;;;8.45;57.88
17373;BME280;8803;48.116;11.590;2024-01-30T10:14:38;97014.80;;;8.45;57.65
17373;BME280;8803;48.116;11.590;2024-01-30T10:18:57;97009.30;;;8.62;57.16
17373;BME280;8803;48.116;11.590;2024-01-30T10:23:14;97009.52;;;8.73;56.97
17373;BME280;8803;48.116;11.590;2024-01-30T10:27:34;97001.47;;;8.82;56.64
17373;BME280;8803;48.116;11.590;2024-01-30T10:32:11;97000.35;;;8.93;56.02
17373;BME280;8803;48.116;11.590;2024-01-30T10:36:29;96993.91;;;9.04;55.78
17373;BME280;8803;48.116;11.590;2024-01-30T10:40:50;96986.77;;;9.12;55.19
17373;BME280;8803;48.116;11.590;2024-01-30T10:42:58;96986.77;;;9.05;53.79
17373;BME280;8803;48.116;11.590;2024-01-30T10:49:35;96973.64;;;9.37;54.43
17373;BME280;8803;48.116;11.590;2024-01-30T10:53:57;96965.56;;;9.45;54.03
17373;BME280;8803;48.116;11.590;2024-01-30T10:58:13;96963.66;;;9.54;54.24
17373;BME280;8803;48.116;11.590;2024-01-30T11:02:35;96953.55;;;9.60;53.59
17373;BME280;8803;48.116;11.590;2024-01-30T11:06:55;96954.48;;;9.66;53.65
17373;BME280;8803;48.116;11.590;2024-01-30T11:11:18;96945.55;;;9.74;53.45
17373;BME280;8803;48.116;11.590;2024-01-30T11:15:38;96944.28;;;9.79;52.97
17373;BME280;8803;48.116;11.590;2024-01-30T11:17:49;96951.41;;;9.79;53.18
17373;BME280;8803;48.116;11.590;2024-01-30T11:22:10;96945.95;;;9.87;53.10
17373;BME280;8803;48.116;11.590;2024-01-30T11:26:30;96937.67;;;9.92;51.88
17373;BME280;8803;48.116;11.590;2024-01-30T11:31:02;96927.92;;;10.05;52.24
17373;BME280;8803;48.116;11.590;2024-01-30T11:35:22;96923.25;;;10.15;52.28
17373;BME280;8803;48.116;11.590;2024-01-30T11:39:43;96917.67;;;10.25;51.82
17373;BME280;8803;48.116;11.590;2024-01-30T11:44:06;96919.37;;;10.39;50.79
17373;BME280;8803;48.116;11.590;2024-01-30T11:48:24;96913.11;;;10.53;51.17
17373;BME280;8803;48.116;11.590;2024-01-30T11:52:44;96914.28;;;10.61;51.16
17373;BME280;8803;48.116;11.590;2024-01-30T11:57:01;96909.66;;;10.70;50.90
17373;BME280;8803;48.116;11.590;2024-01-30T12:01:19;96909.11;;;10.78;50.65
17373;BME280;8803;48.116;11.590;2024-01-30T12:05:38;96903.97;;;10.87;50.63
17373;BME280;8803;48.116;11.590;2024-01-30T12:07:47;96900.48;;;10.87;50.60
17373;BME280;8803;48.116;11.590;2024-01-30T12:12:10;96890.63;;;11.00;50.45
17373;BME280;8803;48.116;11.590;2024-01-30T12:16:28;96891.16;;;11.05;50.12
17373;BME280;8803;48.116;11.590;2024-01-30T12:20:45;96883.45;;;11.13;49.37
17373;BME280;8803;48.116;11.590;2024-01-30T12:25:07;96883.16;;;11.23;49.12
17373;BME280;8803;48.116;11.590;2024-01-30T12:29:25;96875.57;;;11.30;49.20
17373;BME280;8803;48.116;11.590;2024-01-30T12:31:32;96877.41;;;11.29;49.28
17373;BME280;8803;48.116;11.590;2024-01-30T12:35:50;96874.19;;;11.42;47.87
17373;BME280;8803;48.116;11.590;2024-01-30T12:40:12;96871.33;;;11.51;48.17
17373;BME280;8803;48.116;11.590;2024-01-30T12:44:31;96863.61;;;11.59;47.97
17373;BME280;8803;48.116;11.590;2024-01-30T12:48:50;96859.27;;;11.63;48.18
17373;BME280;8803;48.116;11.590;2024-01-30T12:53:09;96852.08;;;11.71;47.60
17373;BME280;8803;48.116;11.590;2024-01-30T12:57:29;96852.56;;;11.76;47.85
17373;BME280;8803;48.116;11.590;2024-01-30T13:04:00;96847.28;;;11.87;46.96
17373;BME280;8803;48.116;11.590;2024-01-30T13:08:19;96849.73;;;11.96;46.68
17373;BME280;8803;48.116;11.590;2024-01-30T13:12:37;96844.06;;;12.06;46.70
17373;BME280;8803;48.116;11.590;2024-01-30T13:16:56;96834.97;;;12.08;47.21
17373;BME280;8803;48.116;11.590;2024-01-30T13:21:14;96846.25;;;12.12;47.28
17373;BME280;8803;48.116;11.590;2024-01-30T13:25:32;96838.16;;;12.13;47.30
17373;BME280;8803;48.116;11.590;2024-01-30T13:29:50;96839.97;;;12.18;46.84
17373;BME280;8803;48.116;11.590;2024-01-30T13:34:09;96839.14;;;12.29;45.95
17373;BME280;8803;48.116;11.590;2024-01-30T13:38:27;96839.99;;;12.35;45.62
17373;BME280;8803;48.116;11.590;2024-01-30T13:42:45;96843.05;;;12.41;45.75
17373;BME280;8803;48.116;11.590;2024-01-30T13:47:06;96853.50;;;12.44;46.10
17373;BME280;8803;48.116;11.590;2024-01-30T13:51:24;96846.44;;;12.43;46.00
17373;BME280;8803;48.116;11.590;2024-01-30T13:55:42;96851.69;;;12.45;45.39
17373;BME280;8803;48.116;11.590;2024-01-30T14:00:00;96843.30;;;12.44;46.08
17373;BME280;8803;48.116;11.590;2024-01-30T14:04:20;96849.84;;;12.40;46.61
17373;BME280;8803;48.116;11.590;2024-01-30T14:08:38;96848.86;;;12.35;46.71
17373;BME280;8803;48.116;11.590;2024-01-30T14:12:55;96851.28;;;12.33;46.77
17373;BME280;8803;48.116;11.590;2024-01-30T14:17:14;96860.02;;;12.29;46.76
17373;BME280;8803;48.116;11.590;2024-01-30T14:21:33;96857.10;;;12.27;46.84
17373;BME280;8803;48.116;11.590;2024-01-30T14:25:53;96856.84;;;12.24;46.98
17373;BME280;8803;48.116;11.590;2024-01-30T14:30:14;96859.99;;;12.18;47.21
17373;BME280;8803;48.116;11.590;2024-01-30T14:34:32;96860.24;;;12.15;47.46
17373;BME280;8803;48.116;11.590;2024-01-30T14:38:50;96867.61;;;12.12;47.48
17373;BME280;8803;48.116;11.590;2024-01-30T14:43:08;96875.14;;;12.07;47.63
17373;BME280;8803;48.116;11.590;2024-01-30T14:47:26;96880.09;;;12.06;47.74
17373;BME280;8803;48.116;11.590;2024-01-30T14:53:50;96881.91;;;12.05;47.54
17373;BME280;8803;48.116;11.590;2024-01-30T14:58:08;96876.95;;;12.06;47.66
17373;BME280;8803;48.116;11.590;2024-01-30T15:02:29;96880.95;;;12.06;47.80
17373;BME280;8803;48.116;11.590;2024-01-30T15:06:47;96886.89;;;12.04;47.87
17373;BME280;8803;48.116;11.590;2024-01-30T15:11:06;96888.09;;;12.00;48.13
17373;BME280;8803;48.116;11.590;2024-01-30T15:15:24;96884.81;;;11.97;48.27
17373;BME280;8803;48.116;11.590;2024-01-30T15:19:43;96889.04;;;11.94;48.53
17373;BME280;8803;48.116;11.590;2024-01-30T15:24:02;96896.05;;;11.89;48.72
17373;BME280;8803;48.116;11.590;2024-01-30T15:28:22;96900.39;;;11.84;48.89
17373;BME280;8803;48.116;11.590;2024-01-30T15:32:41;96904.13;;;11.82;49.08
17373;BME280;8803;48.116;11.590;2024-01-30T15:36:58;96905.33;;;11.78;49.20
17373;BME280;8803;48.116;11.590;2024-01-30T15:41:16;96911.77;;;11.75;49.37
17373;BME280;8803;48.116;11.590;2024-01-30T15:45:37;96914.18;;;11.73;49.59
17373;BME280;8803;48.116;11.590;2024-01-30T15:49:55;96910.52;;;11.68;49.77
17373;BME280;8803;48.116;11.590;2024-01-30T15:54:12;96913.86;;;11.65;49.89
17373;BME280;8803;48.116;11.590;2024-01-30T15:58:31;96915.41;;;11.62;50.03
17373;BME280;8803;48.116;11.590;2024-01-30T16:02:49;96921.08;;;11.57;50.16
17373;BME280;8803;48.116;11.590;2024-01-30T16:07:07;96925.67;;;11.55;50.40
17373;BME280;8803;48.116;11.590;2024-01-30T16:11:25;96934.01;;;11.51;50.63
17373;BME280;8803;48.116;11.590;2024-01-30T16:15:44;96943.20;;;11.47;50.89
17373;BME280;8803;48.116;11.590;2024-01-30T16:20:02;96945.36;;;11.42;51.13
17373;BME280;8803;48.116;11.590;2024-01-30T16:24:23;96945.22;;;11.38;51.34
17373;BME280;8803;48.116;11.590;2024-01-30T16:28:41;96953.27;;;11.31;51.52
17373;BME280;8803;48.116;11.590;2024-01-30T16:33:00;96954.07;;;11.26;51.73
17373;BME280;8803;48.116;11.590;2024-01-30T16:37:20;96962.04;;;11.20;51.98
17373;BME280;8803;48.116;11.590;2024-01-30T16:39:25;96963.93;;;11.13;52.03
17373;BME280;8803;48.116;11.590;2024-01-30T16:43:45;96971.53;;;11.11;52.34
17373;BME280;8803;48.116;11.590;2024-01-30T16:48:04;96970.64;;;11.05;52.60
17373;BME280;8803;48.116;11.590;2024-01-30T16:52:23;96973.82;;;10.98;52.87
17373;BME280;8803;48.116;11.590;2024-01-30T16:56:41;96975.23;;;10.91;53.17
17373;BME280;8803;48.116;11.590;2024-01-30T17:01:01;96978.33;;;10.85;53.40
17373;BME280;8803;48.116;11.590;2024-01-30T17:05:20;96981.42;;;10.79;53.74
17373;BME280;8803;48.116;11.590;2024-01-30T17:09:38;96986.67;;;10.73;53.99
17373;BME280;8803;48.116;11.590;2024-01-30T17:13:56;96989.30;;;10.68;54.31
17373;BME280;8803;48.116;11.590;2024-01-30T17:16:02;96989.80;;;10.60;54.36
17373;BME280;8803;48.116;11.590;2024-01-30T17:20:21;96989.05;;;10.58;54.76
17373;BME280;8803;48.116;11.590;2024-01-30T17:24:40;96994.80;;;10.52;55.06
17373;BME280;8803;48.116;11.590;2024-01-30T17:28:58;96994.36;;;10.46;55.38
17373;BME280;8803;48.116;11.590;2024-01-30T17:33:19;96997.83;;;10.41;55.72
17373;BME280;8803;48.116;11.590;2024-01-30T17:37:37;97000.52;;;10.33;55.93
17373;BME280;8803;48.116;11.590;2024-01-30T17:41:56;96996.83;;;10.29;56.24
17373;BME280;8803;48.116;11.590;2024-01-30T17:46:15;97004.28;;;10.24;56.57
17373;BME280;8803;48.116;11.590;2024-01-30T17:50:33;97007.33;;;10.18;56.79
17373;BME280;8803;48.116;11.590;2024-01-30T17:54:52;97014.78;;;10.13;57.09
17373;BME280;8803;48.116;11.590;2024-01-30T17:59:13;97018.67;;;10.07;57.33
17373;BME280;8803;48.116;11.590;2024-01-30T18:03:33;97018.22;;;10.01;57.68
17373;BME280;8803;48.116;11.590;2024-01-30T18:07:50;97014.06;;;9.97;57.99
17373;BME280;8803;48.116;11.590;2024-01-30T18:14:22;97017.67;;;9.89;58.27
17373;BME280;8803;48.116;11.590;2024-01-30T18:18:41;97022.81;;;9.85;58.60
17373;BME280;8803;48.116;11.590;2024-01-30T18:23:00;97029.29;;;9.81;58.72
17373;BME280;8803;48.116;11.590;2024-01-30T18:27:23;97032.16;;;9.78;59.08
17373;BME280;8803;48.116;11.590;2024-01-30T18:31:41;97025.34;;;9.74;59.24
17373;BME280;8803;48.116;11.590;2024-01-30T18:36:00;97030.84;;;9.71;59.47
17373;BME280;8803;48.116;11.590;2024-01-30T18:40:19;97030.66;;;9.67;59.64
17373;BME280;8803;48.116;11.590;2024-01-30T18:44:38;97027.35;;;9.63;59.79
17373;BME280;8803;48.116;11.590;2024-01-30T18:48:58;97024.98;;;9.59;60.01
17373;BME280;8803;48.116;11.590;2024-01-30T18:53:19;97026.02;;;9.56;60.06
17373;BME280;8803;48.116;11.590;2024-01-30T18:57:37;97031.52;;;9.53;60.33
17373;BME280;8803;48.116;11.590;2024-01-30T19:01:54;97027.75;;;9.50;60.33
17373;BME280;8803;48.116;11.590;2024-01-30T19:06:12;97037.70;;;9.46;60.62
17373;BME280;8803;48.116;11.590;2024-01-30T19:10:30;97040.10;;;9.44;60.60
17373;BME280;8803;48.116;11.590;2024-01-30T19:14:48;97036.86;;;9.39;60.86
17373;BME280;8803;48.116;11.590;2024-01-30T19:19:07;97033.84;;;9.38;61.38
17373;BME280;8803;48.116;11.590;2024-01-30T19:23:31;97037.52;;;9.42;61.11
17373;BME280;8803;48.116;11.590;2024-01-30T19:27:48;97039.52;;;9.39;60.89
17373;BME280;8803;48.116;11.590;2024-01-30T19:32:09;97046.74;;;9.37;61.05
17373;BME280;8803;48.116;11.590;2024-01-30T19:36:27;97042.86;;;9.35;61.02
17373;BME280;8803;48.116;11.590;2024-01-30T19:42:58;97045.69;;;9.32;61.25
17373;BME280;8803;48.116;11.590;2024-01-30T19:47:23;97044.08;;;9.30;61.21
17373;BME280;8803;48.116;11.590;2024-01-30T19:51:43;97052.62;;;9.28;61.50
17373;BME280;8803;48.116;11.590;2024-01-30T19:56:01;97056.71;;;9.26;61.55
17373;BME280;8803;48.116;11.590;2024-01-30T20:00:25;97059.37;;;9.26;61.52
17373;BME280;8803;48.116;11.590;2024-01-30T20:04:43;97069.14;;;9.26;61.56
17373;BME280;8803;48.116;11.590;2024-01-30T20:09:11;97065.42;;;9.21;61.36
17373;BME280;8803;48.116;11.590;2024-01-30T20:13:29;97069.05;;;9.20;61.82
17373;BME280;8803;48.116;11.590;2024-01-30T20:15:35;97070.19;;;9.16;61.68
17373;BME280;8803;48.116;11.590;2024-01-30T20:19:56;97072.28;;;9.18;61.85
17373;BME280;8803;48.116;11.590;2024-01-30T20:24:14;97076.94;;;9.15;61.81
17373;BME280;8803;48.116;11.590;2024-01-30T20:26:18;97079.87;;;9.10;61.84
17373;BME280;8803;48.116;11.590;2024-01-30T20:30:38;97078.34;;;9.13;62.06
17373;BME280;8803;48.116;11.590;2024-01-30T20:34:56;97076.71;;;9.11;62.07
17373;BME280;8803;48.116;11.590;2024-01-30T20:39:14;97077.78;;;9.08;62.29
17373;BME280;8803;48.116;11.590;2024-01-30T20:43:33;97084.99;;;9.06;62.56
17373;BME280;8803;48.116;11.590;2024-01-30T20:47:51;97080.71;;;9.04;62.55
17373;BME280;8803;48.116;11.590;2024-01-30T20:52:10;97091.44;;;9.02;62.64
17373;BME280;8803;48.116;11.590;2024-01-30T20:56:28;97091.98;;;9.00;62.66
17373;BME280;8803;48.116;11.590;2024-01-30T21:02:57;97097.95;;;8.97;62.92
17373;BME280;8803;48.116;11.590;2024-01-30T21:07:16;97097.66;;;8.94;62.97
17373;BME280;8803;48.116;11.590;2024-01-30T21:11:55;97094.74;;;8.92;62.92
17373;BME280;8803;48.116;11.590;2024-01-30T21:16:13;97103.55;;;8.85;63.35
17373;BME280;8803;48.116;11.590;2024-01-30T21:20:32;97106.27;;;8.84;63.46
17373;BME280;8803;48.116;11.590;2024-01-30T21:24:50;97109.98;;;8.81;63.51
17373;BME280;8803;48.116;11.590;2024-01-30T21:29:09;97104.95;;;8.77;63.63
17373;BME280;8803;48.116;11.590;2024-01-30T21:33:28;97104.34;;;8.71;63.92
17373;BME280;8803;48.116;11.590;2024-01-30T21:37:46;97107.27;;;8.67;64.06
17373;BME280;8803;48.116;11.590;2024-01-30T21:42:06;97107.53;;;8.62;64.29
17373;BME280;8803;48.116;11.590;2024-01-30T21:46:28;97101.20;;;8.58;64.64
17373;BME280;8803;48.116;11.590;2024-01-30T21:50:46;97093.86;;;8.54;64.57
17373;BME280;8803;48.116;11.590;2024-01-30T21:55:09;97094.98;;;8.50;64.73
17373;BME280;8803;48.116;11.590;2024-01-30T21:59:27;97095.45;;;8.50;65.03
17373;BME280;8803;48.116;11.590;2024-01-30T22:03:45;97094.69;;;8.48;65.18